createdAt,value
2019-05-22T00:01:09.180Z,46.34
2019-05-22T00:03:49.396Z,46.35
2019-05-22T00:06:27.375Z,46.31
2019-05-22T00:09:02.306Z,46.30
2019-05-22T00:11:38.149Z,46.34
2019-05-22T00:14:13.828Z,46.31
2019-05-22T00:16:47.910Z,46.30
2019-05-22T00:19:22.830Z,46.26
2019-05-22T00:22:03.083Z,46.16
2019-05-22T00:24:39.182Z,46.24
2019-05-22T00:27:15.033Z,46.35
2019-05-22T00:29:50.437Z,46.30
2019-05-22T00:32:25.677Z,46.34
2019-05-22T00:35:00.410Z,46.31
2019-05-22T00:37:34.867Z,46.33
2019-05-22T00:40:09.840Z,46.36
2019-05-22T00:42:45.827Z,46.41
2019-05-22T00:45:21.318Z,46.34
2019-05-22T00:47:55.429Z,46.37
2019-05-22T00:50:35.417Z,46.28
2019-05-22T00:53:28.322Z,46.27
2019-05-22T00:56:03.919Z,46.34
2019-05-22T00:58:42.671Z,46.38
2019-05-22T01:01:32.814Z,46.34
2019-05-22T01:04:08.848Z,46.35
2019-05-22T01:06:44.039Z,46.27
2019-05-22T01:09:25.895Z,46.32
2019-05-22T01:12:00.582Z,46.31
2019-05-22T01:14:42.382Z,46.25
2019-05-22T01:17:11.699Z,46.33
2019-05-22T01:19:47.775Z,46.37
2019-05-22T01:22:23.371Z,46.30
2019-05-22T01:24:57.001Z,46.24
2019-05-22T01:27:32.713Z,46.34
2019-05-22T01:30:08.437Z,46.29
2019-05-22T01:32:44.846Z,46.37
2019-05-22T01:35:20.457Z,46.32
2019-05-22T01:37:55.105Z,46.36
2019-05-22T01:40:42.585Z,46.32
2019-05-22T01:43:17.848Z,46.32
2019-05-22T01:45:53.620Z,46.26
2019-05-22T01:48:33.577Z,46.37
2019-05-22T01:51:07.435Z,46.24
2019-05-22T01:53:42.389Z,45.92
2019-05-22T01:56:19.076Z,45.83
2019-05-22T01:58:54.047Z,45.96
2019-05-22T02:01:27.800Z,45.95
2019-05-22T02:04:02.114Z,45.71
2019-05-22T02:06:37.384Z,45.71
2019-05-22T02:09:30.943Z,45.61
2019-05-22T02:12:36.386Z,45.62
2019-05-22T02:15:11.393Z,45.68
2019-05-22T02:17:46.704Z,45.54
2019-05-22T02:20:20.939Z,45.53
2019-05-22T02:22:54.701Z,45.84
2019-05-22T02:25:29.081Z,45.90
2019-05-22T02:28:02.795Z,45.54
2019-05-22T02:30:38.617Z,45.61
2019-05-22T02:33:14.180Z,45.63
2019-05-22T02:35:47.839Z,45.51
2019-05-22T02:38:22.444Z,45.51
2019-05-22T02:40:57.362Z,45.68
2019-05-22T02:43:31.899Z,45.49
2019-05-22T02:46:07.134Z,45.48
2019-05-22T02:48:42.408Z,45.53
2019-05-22T02:51:16.390Z,45.44
2019-05-22T02:53:50.102Z,45.70
2019-05-22T02:56:23.794Z,45.42
2019-05-22T02:58:58.054Z,45.62
2019-05-22T03:01:31.715Z,45.53
2019-05-22T03:04:07.848Z,45.41
2019-05-22T03:06:41.910Z,45.75
2019-05-22T03:09:30.085Z,45.67
2019-05-22T03:12:11.576Z,45.66
2019-05-22T03:14:46.473Z,45.34
2019-05-22T03:17:30.412Z,45.66
2019-05-22T03:20:09.334Z,45.43
2019-05-22T03:23:38.063Z,45.39
2019-05-22T03:26:13.516Z,45.61
2019-05-22T03:28:48.289Z,45.26
2019-05-22T03:31:22.558Z,45.51
2019-05-22T03:33:56.551Z,45.50
2019-05-22T03:36:30.426Z,45.61
2019-05-22T03:39:05.812Z,45.34
2019-05-22T03:41:39.531Z,45.28
2019-05-22T03:44:13.897Z,45.42
2019-05-22T03:46:48.614Z,45.52
2019-05-22T03:49:31.230Z,45.42
2019-05-22T03:51:58.594Z,45.21
2019-05-22T03:54:32.713Z,45.36
2019-05-22T03:57:06.975Z,45.15
2019-05-22T03:59:40.737Z,45.61
2019-05-22T04:02:14.799Z,45.23
2019-05-22T04:04:48.550Z,45.12
2019-05-22T04:07:23.913Z,45.10
2019-05-22T04:09:57.611Z,45.14
2019-05-22T04:12:31.793Z,45.13
2019-05-22T04:15:07.863Z,45.23
2019-05-22T04:17:42.927Z,45.44
2019-05-22T04:20:18.174Z,45.16
2019-05-22T04:23:02.104Z,45.42
2019-05-22T04:25:36.516Z,45.15
2019-05-22T04:28:10.103Z,45.43
2019-05-22T04:30:43.950Z,45.01
2019-05-22T04:33:17.733Z,45.46
2019-05-22T04:35:51.823Z,45.03
2019-05-22T04:38:25.711Z,45.27
2019-05-22T04:40:59.933Z,45.20
2019-05-22T04:43:34.951Z,45.26
2019-05-22T04:46:09.869Z,44.99
2019-05-22T04:48:46.125Z,45.10
2019-05-22T04:51:29.234Z,45.15
2019-05-22T04:54:02.828Z,45.12
2019-05-22T04:56:36.665Z,45.25
2019-05-22T04:59:10.482Z,45.38
2019-05-22T05:01:44.097Z,45.39
2019-05-22T05:04:18.215Z,45.12
2019-05-22T05:06:52.385Z,44.96
2019-05-22T05:09:26.533Z,45.30
2019-05-22T05:12:00.385Z,44.83
2019-05-22T05:14:34.106Z,44.93
2019-05-22T05:17:09.420Z,45.38
2019-05-22T05:19:43.175Z,45.13
2019-05-22T05:22:27.284Z,45.41
2019-05-22T05:25:01.082Z,45.24
2019-05-22T05:27:35.269Z,45.34
2019-05-22T05:30:09.106Z,45.33
2019-05-22T05:32:43.211Z,45.62
2019-05-22T05:35:17.677Z,46.11
2019-05-22T05:37:51.779Z,45.65
2019-05-22T05:40:42.927Z,45.53
2019-05-22T05:43:21.342Z,45.76
2019-05-22T05:45:55.059Z,45.45
2019-05-22T05:48:31.546Z,45.51
2019-05-22T05:51:43.116Z,45.43
2019-05-22T05:54:19.233Z,45.53
2019-05-22T05:56:52.985Z,45.55
2019-05-22T05:59:27.787Z,45.70
2019-05-22T06:02:01.657Z,45.94
2019-05-22T06:04:39.574Z,45.89
2019-05-22T06:07:26.420Z,46.00
2019-05-22T06:10:51.061Z,46.19
2019-05-22T06:13:25.482Z,45.98
2019-05-22T06:16:56.203Z,46.59
2019-05-22T06:19:30.617Z,46.00
2019-05-22T06:22:04.418Z,45.74
2019-05-22T06:25:02.163Z,45.73
2019-05-22T06:27:50.350Z,45.69
2019-05-22T06:30:47.872Z,46.23
2019-05-22T06:33:32.932Z,46.05
2019-05-22T06:36:14.964Z,46.03
2019-05-22T06:39:07.827Z,46.17
2019-05-22T06:41:43.037Z,46.11
2019-05-22T06:44:38.449Z,46.60
2019-05-22T06:47:23.506Z,45.16
2019-05-22T06:50:01.588Z,45.38
2019-05-22T06:52:35.425Z,45.35
2019-05-22T06:55:09.380Z,45.42
2019-05-22T06:57:43.764Z,45.46
2019-05-22T07:00:22.955Z,45.38
2019-05-22T07:02:56.760Z,46.03
2019-05-22T07:05:31.332Z,46.47
2019-05-22T07:08:06.053Z,46.61
2019-05-22T07:10:41.637Z,47.22
2019-05-22T07:13:17.078Z,47.62
2019-05-22T07:15:53.947Z,48.12
2019-05-22T07:18:30.793Z,46.88
2019-05-22T07:21:04.958Z,46.93
2019-05-22T07:23:38.676Z,47.10
2019-05-22T07:26:12.749Z,46.58
2019-05-22T07:28:47.554Z,47.30
2019-05-22T07:31:22.143Z,46.92
2019-05-22T07:33:56.125Z,47.06
2019-05-22T07:36:31.642Z,46.69
2019-05-22T07:39:07.167Z,46.46
2019-05-22T07:41:41.229Z,46.45
2019-05-22T07:44:15.089Z,46.19
2019-05-22T07:46:49.971Z,46.04
2019-05-22T07:49:23.977Z,45.99
2019-05-22T07:52:01.584Z,46.11
2019-05-22T07:54:33.394Z,46.08
2019-05-22T07:57:07.382Z,46.49
2019-05-22T07:59:41.235Z,46.96
2019-05-22T08:02:16.640Z,47.47
2019-05-22T08:04:51.096Z,47.37
2019-05-22T08:07:27.520Z,47.06
2019-05-22T08:10:01.283Z,47.29
2019-05-22T08:12:37.622Z,47.58
2019-05-22T08:15:12.627Z,47.46
2019-05-22T08:17:46.421Z,47.58
2019-05-22T08:20:20.190Z,47.52
2019-05-22T08:22:54.750Z,47.96
2019-05-22T08:25:29.689Z,47.88
2019-05-22T08:28:03.591Z,45.82
2019-05-22T08:30:37.380Z,45.68
2019-05-22T08:33:12.092Z,46.11
2019-05-22T08:35:46.490Z,46.59
2019-05-22T08:38:28.545Z,44.28
2019-05-22T08:41:03.230Z,43.86
2019-05-22T08:44:03.189Z,44.28
2019-05-22T08:46:13.264Z,45.09
2019-05-22T08:48:48.872Z,45.68
2019-05-22T08:51:22.759Z,46.14
2019-05-22T08:53:57.490Z,46.39
2019-05-22T08:56:33.494Z,46.54
2019-05-22T08:59:19.071Z,46.67
2019-05-22T09:01:43.359Z,46.55
2019-05-22T09:04:17.195Z,46.37
2019-05-22T09:06:51.086Z,46.63
2019-05-22T09:09:25.335Z,46.76
2019-05-22T09:11:59.212Z,46.73
2019-05-22T09:14:33.738Z,46.78
2019-05-22T09:17:07.675Z,47.31
2019-05-22T09:19:42.288Z,47.30
2019-05-22T09:22:17.353Z,47.44
2019-05-22T09:24:51.730Z,47.95
2019-05-22T09:27:25.822Z,48.19
2019-05-22T09:29:59.777Z,48.42
2019-05-22T09:32:33.781Z,49.05
2019-05-22T09:35:07.753Z,48.75
2019-05-22T09:37:41.802Z,48.77
2019-05-22T09:40:15.632Z,49.49
2019-05-22T09:42:50.155Z,49.57
2019-05-22T09:45:23.926Z,49.13
2019-05-22T09:47:58.031Z,49.70
2019-05-22T09:50:32.282Z,49.25
2019-05-22T09:53:07.246Z,49.75
2019-05-22T09:55:40.919Z,49.58
2019-05-22T09:58:15.080Z,49.58
2019-05-22T10:00:48.884Z,47.17
2019-05-22T10:03:23.420Z,47.75
2019-05-22T10:05:57.445Z,48.66
2019-05-22T10:08:31.448Z,44.86
2019-05-22T10:11:05.509Z,43.60
2019-05-22T10:13:39.555Z,44.24
2019-05-22T10:16:13.628Z,44.22
2019-05-22T10:18:47.484Z,44.42
2019-05-22T10:21:21.885Z,44.21
2019-05-22T10:23:56.215Z,44.38
2019-05-22T10:26:30.147Z,44.42
2019-05-22T10:29:04.282Z,44.95
2019-05-22T10:31:38.221Z,45.06
2019-05-22T10:34:11.963Z,45.06
2019-05-22T10:36:46.493Z,45.42
2019-05-22T10:39:24.490Z,45.83
2019-05-22T10:41:56.472Z,43.98
2019-05-22T10:44:30.162Z,43.53
2019-05-22T10:47:04.580Z,43.74
2019-05-22T10:49:39.980Z,43.95
2019-05-22T10:52:13.961Z,44.21
2019-05-22T10:54:47.989Z,44.31
2019-05-22T10:57:22.460Z,44.63
2019-05-22T10:59:56.408Z,45.36
2019-05-22T11:02:30.266Z,45.35
2019-05-22T11:05:04.348Z,45.16
2019-05-22T11:07:38.212Z,45.57
2019-05-22T11:10:12.345Z,45.91
2019-05-22T11:12:46.613Z,46.23
2019-05-22T11:15:20.472Z,45.83
2019-05-22T11:17:55.988Z,45.95
2019-05-22T11:20:30.261Z,47.08
2019-05-22T11:23:04.375Z,46.37
2019-05-22T11:25:38.092Z,47.35
2019-05-22T11:28:14.630Z,47.87
2019-05-22T11:30:49.785Z,48.79
2019-05-22T11:33:25.301Z,48.55
2019-05-22T11:35:59.353Z,48.31
2019-05-22T11:38:33.173Z,47.65
2019-05-22T11:41:08.009Z,47.48
2019-05-22T11:43:42.050Z,47.52
2019-05-22T11:46:16.410Z,47.22
2019-05-22T11:48:50.425Z,47.52
2019-05-22T11:51:24.196Z,46.62
2019-05-22T11:54:08.714Z,45.77
2019-05-22T11:56:33.423Z,45.54
2019-05-22T11:59:08.115Z,45.67
2019-05-22T12:01:42.714Z,45.79
2019-05-22T12:04:16.710Z,45.86
2019-05-22T12:06:53.674Z,45.96
2019-05-22T12:09:27.349Z,46.17
2019-05-22T12:12:03.497Z,46.09
2019-05-22T12:14:37.396Z,46.23
2019-05-22T12:17:11.721Z,46.36
2019-05-22T12:19:45.368Z,46.39
2019-05-22T12:22:20.080Z,46.40
2019-05-22T12:24:53.986Z,46.84
2019-05-22T12:27:28.368Z,46.49
2019-05-22T12:30:02.286Z,46.61
2019-05-22T12:32:37.595Z,46.38
2019-05-22T12:35:12.600Z,46.18
2019-05-22T12:37:46.246Z,47.15
2019-05-22T12:40:20.400Z,47.13
2019-05-22T12:42:54.519Z,46.77
2019-05-22T12:45:29.067Z,46.49
2019-05-22T12:48:04.448Z,46.52
2019-05-22T12:50:38.754Z,46.49
2019-05-22T12:53:14.724Z,46.32
2019-05-22T12:55:48.807Z,46.56
2019-05-22T12:58:22.722Z,46.61
2019-05-22T13:00:57.035Z,46.86
2019-05-22T13:03:30.914Z,46.85
2019-05-22T13:06:04.983Z,46.92
2019-05-22T13:08:40.329Z,46.75
2019-05-22T13:11:15.057Z,46.75
2019-05-22T13:13:48.757Z,46.76
2019-05-22T13:16:22.932Z,46.78
2019-05-22T13:18:57.153Z,46.57
2019-05-22T13:21:35.350Z,46.62
2019-05-22T13:24:20.359Z,46.66
2019-05-22T13:26:54.056Z,46.70
2019-05-22T13:29:28.523Z,46.85
2019-05-22T13:32:03.334Z,46.87
2019-05-22T13:34:37.102Z,46.70
2019-05-22T13:37:10.919Z,46.59
2019-05-22T13:39:44.665Z,45.26
2019-05-22T13:42:18.521Z,45.05
2019-05-22T13:44:52.803Z,45.17
2019-05-22T13:47:26.447Z,45.55
2019-05-22T13:50:00.131Z,45.55
2019-05-22T13:52:34.790Z,45.39
2019-05-22T13:55:09.982Z,45.29
2019-05-22T13:57:43.735Z,45.83
2019-05-22T14:00:19.216Z,45.95
2019-05-22T14:02:53.097Z,46.48
2019-05-22T14:05:29.654Z,46.72
2019-05-22T14:08:03.492Z,46.40
2019-05-22T14:10:37.395Z,47.36
2019-05-22T14:13:11.178Z,47.76
2019-05-22T14:15:55.825Z,47.51
2019-05-22T14:18:20.674Z,47.21
2019-05-22T14:20:54.495Z,47.39
2019-05-22T14:23:28.369Z,47.52
2019-05-22T14:26:02.554Z,48.02
2019-05-22T14:28:36.289Z,47.91
2019-05-22T14:31:09.999Z,47.72
2019-05-22T14:33:43.756Z,47.65
2019-05-22T14:36:17.509Z,47.74
2019-05-22T14:38:51.309Z,48.15
2019-05-22T14:41:25.032Z,48.28
2019-05-22T14:43:58.813Z,48.52
2019-05-22T14:46:32.971Z,48.48
2019-05-22T14:49:06.779Z,48.39
2019-05-22T14:51:40.520Z,48.34
2019-05-22T14:54:14.998Z,48.31
2019-05-22T14:56:48.923Z,47.66
2019-05-22T14:59:22.792Z,47.59
2019-05-22T15:01:56.664Z,47.86
2019-05-22T15:04:31.525Z,47.90
2019-05-22T15:07:05.998Z,48.50
2019-05-22T15:09:39.617Z,48.47
2019-05-22T15:12:13.236Z,48.48
2019-05-22T15:14:47.998Z,48.63
2019-05-22T15:17:32.632Z,48.53
2019-05-22T15:19:57.371Z,48.71
2019-05-22T15:22:32.168Z,48.62
2019-05-22T15:25:08.020Z,48.49
2019-05-22T15:27:42.021Z,48.60
2019-05-22T15:30:15.820Z,48.47
2019-05-22T15:32:49.437Z,48.82
2019-05-22T15:35:23.253Z,48.82
2019-05-22T15:37:57.111Z,48.44
2019-05-22T15:40:31.571Z,48.46
2019-05-22T15:43:06.070Z,48.70
2019-05-22T15:45:40.383Z,48.76
2019-05-22T15:48:19.689Z,48.79
2019-05-22T15:50:53.720Z,48.70
2019-05-22T15:53:27.839Z,48.50
2019-05-22T15:56:03.406Z,48.28
2019-05-22T15:58:39.169Z,48.69
2019-05-22T16:01:13.157Z,48.66
2019-05-22T16:03:47.967Z,48.60
2019-05-22T16:06:22.827Z,48.76
2019-05-22T16:08:56.641Z,48.73
2019-05-22T16:11:31.612Z,48.73
2019-05-22T16:14:06.497Z,48.42
2019-05-22T16:16:41.931Z,48.19
2019-05-22T16:19:16.341Z,48.72
2019-05-22T16:21:50.342Z,48.29
2019-05-22T16:24:24.040Z,48.49
2019-05-22T16:26:58.405Z,48.90
2019-05-22T16:29:32.598Z,48.73
2019-05-22T16:32:06.247Z,48.98
2019-05-22T16:34:41.645Z,48.88
2019-05-22T16:37:15.717Z,48.50
2019-05-22T16:39:50.680Z,48.47
2019-05-22T16:42:24.379Z,48.70
2019-05-22T16:44:58.223Z,49.02
2019-05-22T16:47:33.627Z,48.96
2019-05-22T16:50:08.249Z,49.03
2019-05-22T16:52:43.048Z,49.14
2019-05-22T16:55:17.236Z,48.84
2019-05-22T16:57:50.944Z,48.95
2019-05-22T17:00:24.980Z,48.91
2019-05-22T17:02:58.709Z,48.84
2019-05-22T17:05:33.011Z,48.69
2019-05-22T17:08:07.145Z,49.17
2019-05-22T17:10:41.927Z,48.57
2019-05-22T17:13:16.749Z,48.57
2019-05-22T17:15:50.413Z,48.08
2019-05-22T17:18:24.668Z,49.84
2019-05-22T17:20:59.292Z,48.23
2019-05-22T17:23:33.155Z,48.18
2019-05-22T17:26:07.358Z,48.38
2019-05-22T17:28:41.013Z,48.21
2019-05-22T17:31:15.006Z,48.17
2019-05-22T17:33:50.281Z,48.08
2019-05-22T17:36:27.630Z,48.11
2019-05-22T17:39:02.398Z,48.13
2019-05-22T17:41:36.706Z,48.30
2019-05-22T17:44:10.464Z,48.09
2019-05-22T17:46:44.757Z,48.03
2019-05-22T17:49:18.776Z,47.98
2019-05-22T17:51:52.813Z,48.39
2019-05-22T17:54:26.603Z,47.87
2019-05-22T17:57:00.851Z,48.25
2019-05-22T17:59:34.870Z,48.05
2019-05-22T18:02:10.964Z,47.72
2019-05-22T18:04:44.833Z,47.69
2019-05-22T18:07:18.667Z,47.77
2019-05-22T18:09:52.419Z,47.96
2019-05-22T18:12:27.239Z,47.71
2019-05-22T18:15:01.192Z,47.89
2019-05-22T18:17:36.105Z,47.64
2019-05-22T18:20:11.448Z,47.81
2019-05-22T18:22:45.674Z,47.63
2019-05-22T18:25:20.061Z,47.73
2019-05-22T18:27:54.710Z,47.65
2019-05-22T18:30:30.153Z,47.75
2019-05-22T18:33:03.872Z,47.48
2019-05-22T18:35:37.620Z,47.35
2019-05-22T18:38:12.227Z,47.22
2019-05-22T18:40:47.681Z,47.21
2019-05-22T18:43:23.132Z,47.19
2019-05-22T18:45:57.655Z,47.33
2019-05-22T18:48:33.181Z,47.37
2019-05-22T18:51:07.623Z,47.35
2019-05-22T18:53:41.727Z,47.28
2019-05-22T18:56:15.484Z,47.24
2019-05-22T18:58:49.631Z,47.17
2019-05-22T19:01:23.773Z,47.22
2019-05-22T19:03:57.549Z,47.43
2019-05-22T19:06:31.282Z,47.20
2019-05-22T19:09:05.869Z,47.08
2019-05-22T19:11:40.171Z,46.87
2019-05-22T19:14:14.494Z,47.04
2019-05-22T19:16:48.356Z,46.91
2019-05-22T19:19:22.437Z,47.15
2019-05-22T19:21:56.184Z,47.06
2019-05-22T19:24:29.952Z,47.08
2019-05-22T19:27:03.753Z,47.01
2019-05-22T19:29:37.508Z,46.83
2019-05-22T19:32:11.661Z,46.77
2019-05-22T19:34:45.379Z,46.71
2019-05-22T19:37:19.435Z,46.93
2019-05-22T19:39:53.260Z,46.94
2019-05-22T19:42:28.664Z,46.83
2019-05-22T19:45:03.823Z,46.81
2019-05-22T19:47:38.195Z,46.86
2019-05-22T19:50:22.713Z,46.95
2019-05-22T19:52:48.300Z,46.90
2019-05-22T19:55:24.174Z,46.90
2019-05-22T19:57:58.240Z,46.88
2019-05-22T20:00:33.644Z,46.86
2019-05-22T20:03:07.768Z,46.98
2019-05-22T20:05:41.735Z,47.05
2019-05-22T20:08:15.514Z,47.08
2019-05-22T20:10:52.505Z,47.15
2019-05-22T20:13:27.319Z,47.13
2019-05-22T20:16:01.055Z,47.21
2019-05-22T20:18:35.084Z,47.22
2019-05-22T20:21:09.287Z,47.17
2019-05-22T20:23:45.219Z,47.18
2019-05-22T20:26:19.323Z,47.12
2019-05-22T20:28:54.134Z,46.95
2019-05-22T20:31:28.633Z,47.06
2019-05-22T20:34:02.839Z,47.17
2019-05-22T20:36:36.598Z,47.21
2019-05-22T20:39:12.017Z,47.24
2019-05-22T20:41:46.127Z,47.23
2019-05-22T20:44:25.251Z,47.20
2019-05-22T20:46:58.996Z,47.13
2019-05-22T20:49:33.469Z,47.17
2019-05-22T20:52:10.901Z,47.16
2019-05-22T20:54:45.209Z,47.09
2019-05-22T20:57:21.532Z,47.08
2019-05-22T20:59:55.889Z,47.06
2019-05-22T21:02:30.126Z,47.00
2019-05-22T21:05:05.596Z,46.96
2019-05-22T21:07:46.225Z,46.93
2019-05-22T21:10:22.431Z,46.79
2019-05-22T21:12:56.991Z,46.75
2019-05-22T21:15:32.966Z,46.77
2019-05-22T21:18:07.463Z,46.73
2019-05-22T21:20:54.173Z,46.54
2019-05-22T21:23:18.373Z,46.70
2019-05-22T21:25:52.311Z,46.56
2019-05-22T21:28:26.225Z,46.45
2019-05-22T21:30:59.997Z,46.42
2019-05-22T21:33:33.905Z,46.32
2019-05-22T21:36:09.513Z,46.72
2019-05-22T21:38:43.155Z,46.57
2019-05-22T21:41:17.412Z,46.41
2019-05-22T21:43:51.346Z,46.32
2019-05-22T21:46:25.437Z,46.34
2019-05-22T21:48:59.434Z,46.49
2019-05-22T21:51:34.608Z,46.29
2019-05-22T21:54:08.890Z,46.21
2019-05-22T21:56:43.329Z,46.19
2019-05-22T21:59:17.037Z,46.61
2019-05-22T22:01:55.729Z,46.21
2019-05-22T22:04:35.098Z,46.17
2019-05-22T22:07:09.523Z,46.15
2019-05-22T22:09:44.407Z,46.25
2019-05-22T22:12:20.967Z,46.79
2019-05-22T22:14:54.893Z,46.62
2019-05-22T22:17:30.263Z,47.09
2019-05-22T22:20:04.775Z,47.10
2019-05-22T22:22:38.795Z,46.75
2019-05-22T22:25:14.696Z,46.92
2019-05-22T22:27:49.131Z,46.68
2019-05-22T22:30:29.562Z,46.49
2019-05-22T22:33:08.065Z,46.42
2019-05-22T22:35:42.051Z,46.39
2019-05-22T22:38:15.971Z,46.40
2019-05-22T22:40:50.045Z,46.38
2019-05-22T22:43:24.691Z,46.36
2019-05-22T22:46:17.267Z,46.35
2019-05-22T22:48:53.351Z,46.31
2019-05-22T22:51:27.455Z,46.31
2019-05-22T22:54:01.315Z,46.39
2019-05-22T22:56:35.401Z,46.36
2019-05-22T22:59:09.530Z,46.31
2019-05-22T23:01:44.577Z,46.29
2019-05-22T23:04:18.536Z,46.29
2019-05-22T23:06:52.825Z,46.29
2019-05-22T23:09:28.310Z,46.34
2019-05-22T23:12:03.209Z,46.26
2019-05-22T23:14:38.489Z,46.23
2019-05-22T23:17:13.148Z,46.30
2019-05-22T23:19:45.929Z,46.17
2019-05-22T23:22:19.739Z,46.23
2019-05-22T23:24:56.091Z,46.28
2019-05-22T23:27:31.612Z,46.27
2019-05-22T23:30:06.781Z,46.34
2019-05-22T23:32:42.376Z,46.12
2019-05-22T23:35:16.523Z,46.24
2019-05-22T23:37:50.437Z,46.19
2019-05-22T23:40:28.557Z,46.24
2019-05-22T23:43:03.718Z,46.25
2019-05-22T23:45:37.588Z,46.15
2019-05-22T23:48:14.817Z,46.09
2019-05-22T23:50:50.148Z,46.06
2019-05-22T23:53:25.203Z,46.07
2019-05-22T23:55:58.960Z,46.01
2019-05-22T23:58:34.744Z,46.11
